Time;durP1;ratioP1;P1;durP2;ratioP2;P2;SDS_P1;SDS_P2;PMS_P1;PMS_P2;Temp;Humidity;BMP_temperature;BMP_pressure;BME280_temperature;BME280_humidity;BME280_pressure;Samples;Min_cycle;Max_cycle;Signal;HPM_P1;HPM_P2
2022/09/22 00:00:56;;;;;;;;;;;;;;;11.56;65.47;100062.00;4432844;32;34999;-84
2022/09/22 00:03:24;;;;;;;;;;;;;;;11.42;65.84;100059.56;4435088;32;33650;-82
2022/09/22 00:06:00;;;;;;;;;;;;;;;11.42;66.04;100051.75;4435183;32;33328;-82
2022/09/22 00:08:30;;;;;;;;;;;;;;;11.34;66.16;100057.03;4438276;32;34184;-84
2022/09/22 00:11:00;;;;;;;;;;;;;;;11.45;65.88;100059.50;4432183;32;35056;-82
2022/09/22 00:13:30;;;;;;;;;;;;;;;11.14;66.74;100056.34;4432402;32;32787;-82
2022/09/22 00:16:00;;;;;;;;;;;;;;;11.28;66.57;100057.09;4434086;32;33859;-84
2022/09/22 00:18:28;;;;;;;;;;;;;;;11.23;66.57;100048.47;4438319;32;35052;-84
2022/09/22 00:21:04;;;;;;;;;;;;;;;11.27;66.71;100050.19;4435027;32;34831;-82
2022/09/22 00:23:33;;;;;;;;;;;;;;;11.14;66.96;100046.84;4432098;32;33172;-84
2022/09/22 00:26:04;;;;;;;;;;;;;;;11.14;67.12;100045.97;4433277;32;33716;-83
2022/09/22 00:28:34;;;;;;;;;;;;;;;11.29;66.56;100049.28;4435920;32;34209;-82
2022/09/22 00:31:04;;;;;;;;;;;;;;;11.01;67.73;100053.87;4437618;32;34821;-84
2022/09/22 00:33:33;;;;;;;;;;;;;;;11.28;66.60;100044.09;4431090;32;34015;-85
2022/09/22 00:36:02;;;;;;;;;;;;;;;11.26;66.74;100045.84;4429807;32;32770;-81
2022/09/22 00:38:34;;;;;;;;;;;;;;;11.26;66.86;100053.63;4432382;32;32786;-82
2022/09/22 00:41:07;;;;;;;;;;;;;;;11.32;66.39;100040.59;4435163;32;34758;-83
2022/09/22 00:43:38;;;;;;;;;;;;;;;11.39;66.11;100039.66;4429641;32;32901;-81
2022/09/22 00:46:09;;;;;;;;;;;;;;;11.15;66.81;100045.97;4429850;32;33728;-82
2022/09/22 00:48:43;;;;;;;;;;;;;;;11.15;67.00;100039.94;4430862;32;34608;-82
2022/09/22 00:51:20;;;;;;;;;;;;;;;11.24;66.77;100042.44;4430867;32;33960;-83
2022/09/22 00:53:49;;;;;;;;;;;;;;;11.35;66.39;100032.78;4436264;32;31836;-82
2022/09/22 00:56:21;;;;;;;;;;;;;;;11.33;66.23;100037.13;4431746;32;34378;-85
2022/09/22 00:58:54;;;;;;;;;;;;;;;11.37;65.87;100033.63;4432230;32;33884;-83
2022/09/22 01:01:22;;;;;;;;;;;;;;;11.45;65.69;100033.53;4431404;32;34830;-85
2022/09/22 01:03:57;;;;;;;;;;;;;;;11.40;65.86;100033.56;4427571;32;33937;-83
2022/09/22 01:06:26;;;;;;;;;;;;;;;11.28;66.33;100031.13;4436548;32;34630;-84
2022/09/22 01:08:58;;;;;;;;;;;;;;;11.30;66.28;100032.81;4434694;32;34416;-83
2022/09/22 01:11:28;;;;;;;;;;;;;;;11.31;66.14;100031.09;4430117;32;33682;-85
2022/09/22 01:14:01;;;;;;;;;;;;;;;11.37;65.89;100024.97;4430336;32;32304;-84
2022/09/22 01:16:37;;;;;;;;;;;;;;;11.26;65.93;100028.56;4436711;32;34112;-84
2022/09/22 01:19:22;;;;;;;;;;;;;;;11.18;66.38;100022.56;4436005;32;34244;-85
2022/09/22 01:21:51;;;;;;;;;;;;;;;11.15;66.49;100024.34;4416868;32;33537;-82
2022/09/22 01:24:37;;;;;;;;;;;;;;;11.18;66.38;100019.09;4430246;32;33928;-84
2022/09/22 01:27:09;;;;;;;;;;;;;;;11.17;66.44;100014.81;4424169;32;33988;-84
2022/09/22 01:29:54;;;;;;;;;;;;;;;11.17;66.00;100020.00;4425741;32;34046;-85
2022/09/22 01:32:26;;;;;;;;;;;;;;;11.33;65.53;100016.34;4435431;32;34087;-83
2022/09/22 01:35:00;;;;;;;;;;;;;;;11.29;65.43;100015.53;4427559;32;32610;-84
2022/09/22 01:37:32;;;;;;;;;;;;;;;11.37;65.09;100018.03;4431030;32;33788;-84
2022/09/22 01:40:03;;;;;;;;;;;;;;;11.13;66.03;100026.09;4428454;32;33747;-83
2022/09/22 01:42:36;;;;;;;;;;;;;;;10.98;66.67;100022.75;4428322;32;33638;-82
2022/09/22 01:45:06;;;;;;;;;;;;;;;10.77;67.27;100022.97;4434578;32;31952;-83
2022/09/22 01:47:37;;;;;;;;;;;;;;;10.76;67.05;100029.03;4422393;32;34654;-82
2022/09/22 01:50:07;;;;;;;;;;;;;;;10.85;66.83;100026.38;4434165;32;34827;-84
2022/09/22 01:52:36;;;;;;;;;;;;;;;10.95;66.52;100028.00;4430831;32;34506;-82
2022/09/22 01:55:05;;;;;;;;;;;;;;;11.01;66.22;100037.44;4437259;32;33934;-84
2022/09/22 01:57:38;;;;;;;;;;;;;;;10.93;66.42;100021.94;4431582;32;33686;-82
2022/09/22 02:00:08;;;;;;;;;;;;;;;10.81;66.54;100029.84;4433057;32;34852;-82
2022/09/22 02:02:42;;;;;;;;;;;;;;;10.87;66.64;100016.81;4432096;32;34163;-82
2022/09/22 02:05:12;;;;;;;;;;;;;;;10.89;66.67;100022.84;4431884;32;33895;-83
2022/09/22 02:07:41;;;;;;;;;;;;;;;10.71;67.10;100021.28;4437278;32;34219;-83
2022/09/22 02:10:10;;;;;;;;;;;;;;;10.80;66.91;100017.72;4433484;32;33491;-82
2022/09/22 02:12:39;;;;;;;;;;;;;;;10.81;67.02;100016.87;4431729;32;35185;-83
2022/09/22 02:15:58;;;;;;;;;;;;;;;10.94;66.65;100021.06;4432070;32;33931;-82
2022/09/22 02:18:09;;;;;;;;;;;;;;;10.92;66.48;100022.84;4431374;32;34149;-83
2022/09/22 02:20:37;;;;;;;;;;;;;;;11.03;66.27;100028.78;4437241;32;34887;-82
2022/09/22 02:23:07;;;;;;;;;;;;;;;10.79;66.73;100026.41;4432011;32;33980;-82
2022/09/22 02:25:36;;;;;;;;;;;;;;;10.92;66.48;100020.25;4432118;32;33915;-82
2022/09/22 02:28:05;;;;;;;;;;;;;;;10.71;67.55;100021.28;4433879;32;33528;-83
2022/09/22 02:30:40;;;;;;;;;;;;;;;10.81;66.95;100027.25;4431138;32;33926;-82
2022/09/22 02:33:13;;;;;;;;;;;;;;;10.62;67.92;100021.34;4433876;32;35049;-82
2022/09/22 02:35:42;;;;;;;;;;;;;;;10.86;67.35;100020.28;4430808;32;34349;-82
2022/09/22 02:38:14;;;;;;;;;;;;;;;10.83;67.35;100022.91;4432768;32;33968;-84
2022/09/22 02:40:43;;;;;;;;;;;;;;;10.70;67.55;100018.69;4431232;32;34262;-82
2022/09/22 02:43:28;;;;;;;;;;;;;;;10.82;66.85;100023.78;4434952;32;34232;-84
2022/09/22 02:46:05;;;;;;;;;;;;;;;10.88;66.33;100024.59;4433893;32;33058;-83
2022/09/22 02:48:43;;;;;;;;;;;;;;;10.96;66.08;100019.31;4433413;32;34037;-83
2022/09/22 02:51:12;;;;;;;;;;;;;;;10.81;66.66;100024.66;4428939;32;33588;-85
2022/09/22 02:53:42;;;;;;;;;;;;;;;10.94;66.20;100033.19;4430561;32;34584;-82
2022/09/22 02:56:11;;;;;;;;;;;;;;;10.77;67.00;100028.16;4436221;32;33488;-85
2022/09/22 02:58:40;;;;;;;;;;;;;;;10.76;67.01;100026.44;4431811;32;33579;-84
2022/09/22 03:01:09;;;;;;;;;;;;;;;10.67;67.32;100016.97;4429718;32;33602;-83
2022/09/22 03:03:42;;;;;;;;;;;;;;;10.78;66.87;100019.50;4430463;32;33772;-83
2022/09/22 03:06:10;;;;;;;;;;;;;;;10.85;66.55;100016.84;4430602;32;34190;-82
2022/09/22 03:08:38;;;;;;;;;;;;;;;10.91;66.25;100010.72;4435410;32;34417;-83
2022/09/22 03:11:10;;;;;;;;;;;;;;;10.75;66.74;100009.13;4430849;32;33496;-81
2022/09/22 03:13:46;;;;;;;;;;;;;;;10.86;66.27;100013.34;4431616;32;35136;-82
2022/09/22 03:16:14;;;;;;;;;;;;;;;10.85;66.17;100010.78;4431747;32;33162;-85
2022/09/22 03:18:44;;;;;;;;;;;;;;;10.95;65.74;100014.16;4434297;32;33765;-83
2022/09/22 03:21:13;;;;;;;;;;;;;;;10.94;65.80;100017.63;4435574;32;33338;-83
2022/09/22 03:23:41;;;;;;;;;;;;;;;10.95;65.40;100017.63;4429922;32;34194;-81
2022/09/22 03:26:15;;;;;;;;;;;;;;;10.72;66.42;100020.41;4430600;32;33740;-83
2022/09/22 03:28:44;;;;;;;;;;;;;;;10.81;66.20;100016.87;4432344;32;33876;-83
2022/09/22 03:31:16;;;;;;;;;;;;;;;10.59;67.27;100018.78;4432026;32;33125;-82
2022/09/22 03:33:51;;;;;;;;;;;;;;;10.70;66.40;100013.50;4428521;32;34748;-84
2022/09/22 03:36:20;;;;;;;;;;;;;;;10.58;66.68;100012.75;4430077;32;33372;-82
2022/09/22 03:38:58;;;;;;;;;;;;;;;10.50;67.11;100018.84;4426202;32;34064;-84
2022/09/22 03:41:26;;;;;;;;;;;;;;;10.46;67.21;100010.22;4423007;32;33897;-83
2022/09/22 03:43:55;;;;;;;;;;;;;;;10.60;66.72;100013.56;4436579;32;34179;-85
2022/09/22 03:46:23;;;;;;;;;;;;;;;10.46;67.56;100012.81;4431075;32;33022;-85
2022/09/22 03:48:57;;;;;;;;;;;;;;;10.39;67.87;100006.84;4431504;32;35019;-85
2022/09/22 03:51:25;;;;;;;;;;;;;;;10.41;67.94;100002.50;4429568;32;33836;-83
2022/09/22 03:53:57;;;;;;;;;;;;;;;10.46;67.59;100007.63;4436014;32;35065;-82
2022/09/22 03:56:26;;;;;;;;;;;;;;;10.51;67.21;100017.97;4426499;32;33104;-82
2022/09/22 03:59:00;;;;;;;;;;;;;;;10.53;67.45;100013.63;4433466;32;35014;-85
2022/09/22 04:01:29;;;;;;;;;;;;;;;10.35;68.31;100004.28;4431014;32;33372;-83
2022/09/22 04:04:01;;;;;;;;;;;;;;;10.34;68.08;100015.50;4430979;32;34986;-83
2022/09/22 04:06:30;;;;;;;;;;;;;;;10.57;67.53;100007.56;4436160;32;33154;-83
2022/09/22 04:08:58;;;;;;;;;;;;;;;10.45;67.71;100001.59;4435305;32;34186;-83
2022/09/22 04:11:27;;;;;;;;;;;;;;;10.59;67.00;100006.69;4430952;32;34345;-84
2022/09/22 04:13:56;;;;;;;;;;;;;;;10.56;67.15;100009.31;4430617;32;34908;-82
2022/09/22 04:16:29;;;;;;;;;;;;;;;10.39;67.82;100004.25;4436415;32;34252;-84
2022/09/22 04:19:06;;;;;;;;;;;;;;;10.35;67.87;100002.53;4432128;32;33147;-83
2022/09/22 04:21:35;;;;;;;;;;;;;;;10.37;67.92;99999.94;4430600;32;34568;-86
2022/09/22 04:24:07;;;;;;;;;;;;;;;10.38;67.91;100004.25;4430392;32;33862;-84
2022/09/22 04:26:35;;;;;;;;;;;;;;;10.46;67.49;100013.72;4431021;32;34193;-86
2022/09/22 04:29:07;;;;;;;;;;;;;;;10.39;67.50;100011.16;4435493;32;33864;-84
2022/09/22 04:31:35;;;;;;;;;;;;;;;10.47;67.17;100009.38;4430762;32;34079;-85
2022/09/22 04:34:13;;;;;;;;;;;;;;;10.39;67.40;100011.16;4429838;32;33921;-83
2022/09/22 04:36:42;;;;;;;;;;;;;;;10.27;67.54;100022.47;4433532;32;32028;-83
2022/09/22 04:39:17;;;;;;;;;;;;;;;10.19;67.90;100017.28;4430262;32;33807;-85
2022/09/22 04:41:58;;;;;;;;;;;;;;;10.18;67.94;100023.37;4436097;32;34664;-82
2022/09/22 04:44:29;;;;;;;;;;;;;;;10.14;68.04;100016.47;4417209;32;34036;-83
2022/09/22 04:47:02;;;;;;;;;;;;;;;9.99;68.69;100025.19;4435507;32;33416;-83
2022/09/22 04:49:33;;;;;;;;;;;;;;;10.06;68.60;100023.44;4432554;32;33341;-83
2022/09/22 04:52:02;;;;;;;;;;;;;;;10.02;68.65;100021.72;4431401;32;34316;-84
2022/09/22 04:54:33;;;;;;;;;;;;;;;10.03;68.45;100018.28;4435432;32;34178;-83
2022/09/22 04:57:04;;;;;;;;;;;;;;;10.20;68.17;100026.81;4429310;32;33156;-82
2022/09/22 04:59:36;;;;;;;;;;;;;;;10.26;67.96;100023.31;4434558;32;33750;-85
2022/09/22 05:02:05;;;;;;;;;;;;;;;10.20;68.35;100015.59;4430387;32;33785;-83
2022/09/22 05:04:40;;;;;;;;;;;;;;;10.19;68.55;100029.41;4434869;32;33839;-83
2022/09/22 05:07:10;;;;;;;;;;;;;;;10.23;68.39;100020.75;4425847;32;33959;-84
2022/09/22 05:09:39;;;;;;;;;;;;;;;10.07;68.78;100022.56;4427309;32;34028;-83
2022/09/22 05:12:08;;;;;;;;;;;;;;;10.23;68.68;100024.19;4446966;32;34775;-83
2022/09/22 05:14:37;;;;;;;;;;;;;;;10.15;69.11;100020.78;4421424;32;34234;-83
2022/09/22 05:17:08;;;;;;;;;;;;;;;10.32;68.31;100018.12;4434625;32;33715;-86
2022/09/22 05:19:45;;;;;;;;;;;;;;;10.25;68.66;100027.63;4431653;32;33974;-82
2022/09/22 05:22:15;;;;;;;;;;;;;;;10.36;68.34;100018.94;4427122;32;33318;-83
2022/09/22 05:24:46;;;;;;;;;;;;;;;10.42;67.96;100022.38;4429228;32;34505;-84
2022/09/22 05:27:15;;;;;;;;;;;;;;;10.16;69.00;100014.72;4436829;32;32652;-86
2022/09/22 05:29:43;;;;;;;;;;;;;;;10.26;68.67;100023.31;4437416;32;33597;-83
2022/09/22 05:32:15;;;;;;;;;;;;;;;10.18;69.38;100018.19;4431907;32;34753;-84
2022/09/22 05:34:54;;;;;;;;;;;;;;;10.29;69.03;100014.69;4431541;32;34416;-85
2022/09/22 05:37:31;;;;;;;;;;;;;;;10.41;68.77;100019.78;4432583;32;33395;-83
2022/09/22 05:40:00;;;;;;;;;;;;;;;10.40;68.90;100024.09;4433318;32;34088;-86
2022/09/22 05:42:32;;;;;;;;;;;;;;;10.34;69.57;100018.97;4432051;32;33640;-85
2022/09/22 05:45:00;;;;;;;;;;;;;;;10.39;69.31;100021.50;4426965;32;33956;-86
2022/09/22 05:47:32;;;;;;;;;;;;;;;10.61;69.33;100032.63;4429339;32;33586;-85
2022/09/22 05:50:00;;;;;;;;;;;;;;;10.63;69.54;100026.53;4431320;32;33457;-85
2022/09/22 05:52:36;;;;;;;;;;;;;;;11.03;67.84;100022.72;4436783;32;34005;-83
2022/09/22 05:55:05;;;;;;;;;;;;;;;10.96;67.77;100024.50;4431289;32;34287;-84
2022/09/22 05:57:34;;;;;;;;;;;;;;;10.68;69.35;100023.91;4432074;32;33152;-83
2022/09/22 06:00:06;;;;;;;;;;;;;;;10.78;69.42;100030.75;4431448;32;35416;-85
2022/09/22 06:02:49;;;;;;;;;;;;;;;10.83;69.02;100028.97;4399449;32;34377;-83
2022/09/22 06:05:18;;;;;;;;;;;;;;;10.91;69.19;100026.28;4404286;32;34193;-83
2022/09/22 06:07:49;;;;;;;;;;;;;;;11.01;69.11;100027.91;4399976;32;31831;-83
2022/09/22 06:10:17;;;;;;;;;;;;;;;11.26;68.30;100032.84;4397422;32;33929;-84
2022/09/22 06:12:49;;;;;;;;;;;;;;;11.28;68.40;100031.13;4396572;32;33337;-83
2022/09/22 06:15:17;;;;;;;;;;;;;;;11.42;67.96;100029.22;4402529;32;34601;-84
2022/09/22 06:17:51;;;;;;;;;;;;;;;11.53;67.59;100032.56;4395064;32;33948;-83
2022/09/22 06:20:20;;;;;;;;;;;;;;;11.42;67.87;100033.56;4388358;32;34692;-84
2022/09/22 06:22:53;;;;;;;;;;;;;;;11.32;68.21;100040.59;4395419;32;34045;-84
2022/09/22 06:25:26;;;;;;;;;;;;;;;11.29;68.31;100035.44;4398953;32;34915;-85
2022/09/22 06:28:00;;;;;;;;;;;;;;;11.56;67.59;100041.22;4403894;32;34230;-84
2022/09/22 06:30:30;;;;;;;;;;;;;;;11.82;66.48;100044.37;4396138;32;34565;-85
2022/09/22 06:32:58;;;;;;;;;;;;;;;11.58;67.16;100047.25;4392289;32;34678;-83
2022/09/22 06:35:29;;;;;;;;;;;;;;;11.91;66.42;100044.28;4430874;32;34524;-84
2022/09/22 06:37:59;;;;;;;;;;;;;;;11.94;66.36;100043.38;4434225;32;33767;-84
2022/09/22 06:40:31;;;;;;;;;;;;;;;11.84;66.44;100045.22;4428699;32;33975;-83
2022/09/22 06:43:03;;;;;;;;;;;;;;;11.84;66.86;100046.91;4430912;32;33982;-86
2022/09/22 06:45:38;;;;;;;;;;;;;;;12.04;66.14;100046.72;4430852;32;35603;-85
2022/09/22 06:48:07;;;;;;;;;;;;;;;12.00;66.21;100047.63;4427467;32;33605;-83
2022/09/22 06:50:39;;;;;;;;;;;;;;;11.99;66.61;100038.97;4435971;32;34810;-85
2022/09/22 06:53:12;;;;;;;;;;;;;;;11.91;66.91;100044.28;4430935;32;33750;-83
2022/09/22 06:55:42;;;;;;;;;;;;;;;12.20;66.59;100050.81;4419307;32;33760;-83
2022/09/22 06:58:16;;;;;;;;;;;;;;;12.40;65.60;100047.94;4433636;32;33239;-85
2022/09/22 07:00:44;;;;;;;;;;;;;;;12.40;65.55;100052.28;4424864;32;33912;-84
2022/09/22 07:03:19;;;;;;;;;;;;;;;12.38;65.43;100054.91;4433351;32;34294;-84
2022/09/22 07:05:59;;;;;;;;;;;;;;;12.29;66.06;100045.47;4429787;32;35183;-84
2022/09/22 07:08:30;;;;;;;;;;;;;;;12.36;66.15;100048.84;4433653;32;32817;-85
2022/09/22 07:11:01;;;;;;;;;;;;;;;12.74;65.18;100045.66;4431626;32;33619;-83
2022/09/22 07:13:30;;;;;;;;;;;;;;;12.95;63.73;100051.38;4434963;32;33585;-86
2022/09/22 07:16:00;;;;;;;;;;;;;;;12.78;63.39;100047.34;4435392;32;34083;-84
2022/09/22 07:18:28;;;;;;;;;;;;;;;12.70;64.18;100045.72;4428974;32;33610;-85
2022/09/22 07:21:03;;;;;;;;;;;;;;;12.90;63.77;100046.28;4430871;32;33726;-87
2022/09/22 07:23:34;;;;;;;;;;;;;;;12.99;62.87;100051.31;4431203;32;33567;-83
2022/09/22 07:26:08;;;;;;;;;;;;;;;12.73;63.15;100041.34;4437025;32;34163;-83
2022/09/22 07:28:36;;;;;;;;;;;;;;;12.66;64.56;100046.66;4431324;32;33515;-83
2022/09/22 07:31:07;;;;;;;;;;;;;;;12.91;64.46;100044.53;4430978;32;34153;-84
2022/09/22 07:33:35;;;;;;;;;;;;;;;13.17;62.23;100046.69;4431199;32;33811;-83
2022/09/22 07:36:08;;;;;;;;;;;;;;;13.18;62.58;100044.03;4432274;32;34429;-83
2022/09/22 07:38:38;;;;;;;;;;;;;;;13.16;62.92;100047.53;4436411;32;32617;-86
2022/09/22 07:41:10;;;;;;;;;;;;;;;13.42;63.06;100045.34;4430599;32;33838;-83
2022/09/22 07:43:39;;;;;;;;;;;;;;;13.36;62.11;100044.59;4430961;32;33878;-85
2022/09/22 07:46:08;;;;;;;;;;;;;;;13.60;61.36;100049.38;4432456;32;33764;-83
2022/09/22 07:48:41;;;;;;;;;;;;;;;13.81;60.55;100049.81;4436301;32;33104;-86
2022/09/22 07:51:17;;;;;;;;;;;;;;;13.75;61.52;100045.59;4432167;32;33722;-86
2022/09/22 07:54:06;;;;;;;;;;;;;;;13.62;61.62;100049.31;4430265;32;33196;-84
2022/09/22 07:56:35;;;;;;;;;;;;;;;13.62;61.59;100050.16;4432004;32;33894;-84
2022/09/22 07:59:09;;;;;;;;;;;;;;;13.40;61.77;100044.50;4435832;32;33330;-84
2022/09/22 08:01:40;;;;;;;;;;;;;;;13.53;61.58;100049.50;4436548;32;35078;-83
2022/09/22 08:04:15;;;;;;;;;;;;;;;13.72;61.24;100048.22;4422352;32;34089;-84
2022/09/22 08:06:47;;;;;;;;;;;;;;;13.83;61.27;100042.81;4423496;32;35060;-85
2022/09/22 08:09:28;;;;;;;;;;;;;;;13.75;61.31;100047.31;4432110;32;33006;-85
2022/09/22 08:11:58;;;;;;;;;;;;;;;13.84;61.64;100045.41;4431114;32;33756;-84
2022/09/22 08:14:31;;;;;;;;;;;;;;;13.72;60.61;100056.06;4436295;32;33843;-84
2022/09/22 08:17:00;;;;;;;;;;;;;;;13.87;60.21;100050.53;4432123;32;33685;-83
2022/09/22 08:19:29;;;;;;;;;;;;;;;14.30;58.72;100060.06;4432629;32;33116;-85
2022/09/22 08:21:58;;;;;;;;;;;;;;;14.22;58.04;100063.72;4432790;32;33981;-83
2022/09/22 08:24:29;;;;;;;;;;;;;;;14.00;59.55;100066.78;4432703;32;35004;-84
2022/09/22 08:26:58;;;;;;;;;;;;;;;14.41;58.59;100062.41;4438368;32;34892;-84
2022/09/22 08:29:27;;;;;;;;;;;;;;;14.58;57.86;100058.59;4434886;32;33249;-83
2022/09/22 08:31:55;;;;;;;;;;;;;;;14.32;58.16;100051.31;4432450;32;33602;-82
2022/09/22 08:34:24;;;;;;;;;;;;;;;14.43;58.61;100059.78;4432225;32;35027;-86
2022/09/22 08:36:54;;;;;;;;;;;;;;;14.65;58.01;100054.94;4437708;32;35244;-84
2022/09/22 08:39:25;;;;;;;;;;;;;;;14.77;57.89;100061.63;4436798;32;34619;-83
2022/09/22 08:42:04;;;;;;;;;;;;;;;15.02;55.56;100056.63;4432180;32;34893;-84
2022/09/22 08:44:38;;;;;;;;;;;;;;;14.83;56.93;100051.84;4432375;32;33413;-86
2022/09/22 08:47:08;;;;;;;;;;;;;;;14.78;56.44;100050.25;4433758;32;34345;-85
2022/09/22 08:52:41;;;;;;;;;;;;;;;14.95;55.73;100048.06;4437908;32;34461;-84
2022/09/22 08:55:21;;;;;;;;;;;;;;;15.25;54.40;100046.44;4430901;32;33910;-85
2022/09/22 08:57:56;;;;;;;;;;;;;;;15.24;54.68;100049.94;4432485;32;33809;-83
2022/09/22 09:00:28;;;;;;;;;;;;;;;15.31;54.61;100041.03;4432824;32;33085;-85
2022/09/22 09:02:59;;;;;;;;;;;;;;;15.62;52.78;100047.19;4419527;32;34876;-83
2022/09/22 09:05:47;;;;;;;;;;;;;;;15.66;51.92;100047.06;4421916;32;34606;-83
2022/09/22 09:08:31;;;;;;;;;;;;;;;15.86;51.55;100038.66;4417570;32;34994;-83
2022/09/22 09:11:02;;;;;;;;;;;;;;;16.07;49.71;100041.53;4412649;32;33334;-83
2022/09/22 09:13:47;;;;;;;;;;;;;;;16.23;48.75;100044.53;4408597;32;34315;-85
2022/09/22 09:16:24;;;;;;;;;;;;;;;16.28;49.81;100046.09;4410110;32;33784;-82
2022/09/22 09:18:56;;;;;;;;;;;;;;;16.16;49.22;100044.75;4419008;32;34351;-84
2022/09/22 09:21:24;;;;;;;;;;;;;;;16.57;49.01;100037.31;4412963;32;33509;-86
2022/09/22 09:23:57;;;;;;;;;;;;;;;16.94;48.84;100040.56;4412630;32;34500;-84
2022/09/22 09:26:49;;;;;;;;;;;;;;;16.95;46.73;100035.25;4414230;32;33295;-83
2022/09/22 09:29:26;;;;;;;;;;;;;;;16.98;46.72;100034.28;4408524;32;34048;-86
2022/09/22 09:31:55;;;;;;;;;;;;;;;17.21;44.41;100039.59;4412521;32;33466;-84
2022/09/22 09:34:30;;;;;;;;;;;;;;;17.10;45.96;100035.62;4421208;32;34307;-85
2022/09/22 09:37:13;;;;;;;;;;;;;;;17.25;44.68;100037.72;4415409;32;34658;-85
2022/09/22 09:39:46;;;;;;;;;;;;;;;16.95;46.01;100037.88;4418412;32;34680;-83
2022/09/22 09:42:16;;;;;;;;;;;;;;;17.19;45.32;100037.94;4416565;32;34318;-84
2022/09/22 09:44:52;;;;;;;;;;;;;;;17.31;44.81;100040.13;4413220;32;34583;-85
2022/09/22 09:47:31;;;;;;;;;;;;;;;17.41;44.11;100043.28;4421741;32;34086;-84
2022/09/22 09:49:59;;;;;;;;;;;;;;;17.16;45.53;100043.31;4417251;32;33898;-83
2022/09/22 09:52:29;;;;;;;;;;;;;;;17.43;44.11;100039.69;4416320;32;33170;-83
2022/09/22 09:54:58;;;;;;;;;;;;;;;17.54;44.89;100043.69;4416094;32;33939;-85
2022/09/22 09:57:30;;;;;;;;;;;;;;;17.22;45.32;100043.06;4423882;32;34727;-86
2022/09/22 10:00:30;;;;;;;;;;;;;;;17.08;46.47;100042.69;4435895;32;34103;-84
2022/09/22 10:03:13;;;;;;;;;;;;;;;17.39;44.20;100040.69;4433825;32;33264;-83
2022/09/22 10:05:42;;;;;;;;;;;;;;;17.33;45.11;100043.56;4431503;32;34332;-83
2022/09/22 10:08:15;;;;;;;;;;;;;;;17.50;46.32;100045.59;4434865;32;34862;-85
2022/09/22 10:10:55;;;;;;;;;;;;;;;17.66;44.50;100030.13;4431435;32;34641;-84
2022/09/22 10:13:29;;;;;;;;;;;;;;;17.78;44.14;100034.91;4437560;32;33701;-84
2022/09/22 10:16:15;;;;;;;;;;;;;;;17.92;44.38;100040.53;4431008;32;33899;-84
2022/09/22 10:21:19;;;;;;;;;;;;;;;17.84;44.37;100039.12;4431939;32;34749;-87
2022/09/22 10:23:49;;;;;;;;;;;;;;;17.88;44.94;100040.72;4430161;32;33226;-84
2022/09/22 10:26:21;;;;;;;;;;;;;;;17.83;45.64;100038.28;4437764;32;34496;-86
2022/09/22 10:29:06;;;;;;;;;;;;;;;17.98;44.67;100043.87;4434366;32;34344;-84
2022/09/22 10:31:42;;;;;;;;;;;;;;;17.89;43.66;100037.19;4432155;32;34185;-83
2022/09/22 10:34:27;;;;;;;;;;;;;;;17.89;44.99;100045.06;4431369;32;33183;-85
2022/09/22 10:36:58;;;;;;;;;;;;;;;17.92;43.63;100040.53;4432570;32;34280;-85
2022/09/22 10:39:29;;;;;;;;;;;;;;;17.88;43.16;100036.34;4431548;32;34293;-84
2022/09/22 10:42:01;;;;;;;;;;;;;;;18.08;43.02;100032.09;4436904;32;34533;-85
2022/09/22 10:44:30;;;;;;;;;;;;;;;18.27;42.12;100027.81;4430670;32;33270;-84
2022/09/22 10:47:17;;;;;;;;;;;;;;;18.27;44.66;100026.97;4432741;32;33120;-85
2022/09/22 10:50:08;;;;;;;;;;;;;;;18.31;43.33;100026.81;4435991;32;35102;-85
2022/09/22 10:52:40;;;;;;;;;;;;;;;18.62;41.65;100017.66;4431199;32;34770;-83
2022/09/22 10:55:19;;;;;;;;;;;;;;;18.95;40.88;100018.06;4436296;32;33213;-86
2022/09/22 10:57:57;;;;;;;;;;;;;;;18.87;40.47;100008.78;4435108;32;34860;-84
2022/09/22 11:00:29;;;;;;;;;;;;;;;19.16;40.12;100011.03;4433408;32;33559;-84
2022/09/22 11:03:24;;;;;;;;;;;;;;;19.05;40.66;99992.22;4430799;32;33493;-86
2022/09/22 11:14:27;;;;;;;;;;;;;;;18.54;40.80;99994.34;4420329;32;34239;-86
2022/09/22 11:17:05;;;;;;;;;;;;;;;18.68;40.17;99987.66;4430435;32;32980;-85
2022/09/22 11:20:01;;;;;;;;;;;;;;;18.69;40.23;99998.09;4431530;32;34496;-86
2022/09/22 11:22:36;;;;;;;;;;;;;;;18.85;40.01;99984.34;4426422;32;34743;-84
2022/09/22 11:25:07;;;;;;;;;;;;;;;18.89;40.66;99984.13;4430053;32;34072;-86
2022/09/22 11:27:41;;;;;;;;;;;;;;;18.53;40.37;99981.25;4434786;32;34328;-83
2022/09/22 11:30:21;;;;;;;;;;;;;;;18.80;41.19;99984.56;4436226;32;33966;-86
2022/09/22 11:33:02;;;;;;;;;;;;;;;18.82;38.99;99981.84;4430609;32;35072;-84
2022/09/22 11:35:33;;;;;;;;;;;;;;;18.69;40.25;99971.81;4430133;32;34534;-84
2022/09/22 11:38:17;;;;;;;;;;;;;;;19.03;39.03;99975.66;4431593;32;33075;-83
2022/09/22 11:40:52;;;;;;;;;;;;;;;19.08;38.93;99963.16;4428740;32;34044;-82
2022/09/22 11:43:26;;;;;;;;;;;;;;;19.38;38.04;99960.09;4436623;32;34427;-83
2022/09/22 11:45:56;;;;;;;;;;;;;;;19.58;37.76;99961.81;4420494;32;33960;-85
2022/09/22 11:48:28;;;;;;;;;;;;;;;19.54;38.12;99961.09;4431620;32;33375;-84
2022/09/22 11:51:03;;;;;;;;;;;;;;;19.46;37.13;99952.72;4431037;32;33267;-87
2022/09/22 11:53:43;;;;;;;;;;;;;;;19.26;38.64;99945.72;4429994;32;33901;-82
2022/09/22 11:56:37;;;;;;;;;;;;;;;18.81;38.70;99945.97;4436617;32;36203;-84
2022/09/22 11:59:08;;;;;;;;;;;;;;;18.79;38.08;99950.44;4436347;32;34250;-83
2022/09/22 12:01:39;;;;;;;;;;;;;;;18.37;39.51;99946.88;4432202;32;33738;-83
2022/09/22 12:04:13;;;;;;;;;;;;;;;18.59;38.55;99946.84;4430494;32;34705;-82
2022/09/22 12:06:48;;;;;;;;;;;;;;;18.36;39.88;99944.31;4429285;32;34996;-83
2022/09/22 12:09:22;;;;;;;;;;;;;;;18.66;40.06;99940.41;4436497;32;33637;-84
2022/09/22 12:11:50;;;;;;;;;;;;;;;18.33;41.69;99938.25;4436579;32;34305;-84
2022/09/22 12:14:21;;;;;;;;;;;;;;;18.59;41.28;99935.50;4430654;32;34132;-84
2022/09/22 12:16:50;;;;;;;;;;;;;;;18.40;42.25;99928.38;4416773;32;34127;-84
2022/09/22 12:19:23;;;;;;;;;;;;;;;18.54;42.83;99935.69;4431192;32;33328;-85
2022/09/22 12:21:52;;;;;;;;;;;;;;;18.69;43.35;99939.44;4429714;32;34829;-84
2022/09/22 12:24:24;;;;;;;;;;;;;;;18.61;42.75;99939.75;4419144;32;34157;-85
2022/09/22 12:26:53;;;;;;;;;;;;;;;18.65;43.30;99943.97;4423611;32;34340;-86
2022/09/22 12:29:23;;;;;;;;;;;;;;;18.45;44.94;99941.31;4429403;32;33506;-84
2022/09/22 12:31:54;;;;;;;;;;;;;;;18.35;46.27;99946.09;4431340;32;32974;-83
2022/09/22 12:34:25;;;;;;;;;;;;;;;18.55;46.54;99945.25;4430728;32;33679;-84
2022/09/22 12:36:54;;;;;;;;;;;;;;;18.49;45.48;99938.50;4425522;32;35168;-85
2022/09/22 12:39:33;;;;;;;;;;;;;;;18.27;46.42;99946.41;4424554;32;33892;-86
2022/09/22 12:42:01;;;;;;;;;;;;;;;18.36;46.73;99942.53;4429692;32;34629;-86
2022/09/22 12:44:43;;;;;;;;;;;;;;;18.12;46.68;99944.38;4434750;32;34118;-82
2022/09/22 12:47:16;;;;;;;;;;;;;;;18.07;46.49;99935.84;4435650;32;34615;-84
2022/09/22 12:49:48;;;;;;;;;;;;;;;18.10;45.97;99936.59;4429811;32;33262;-84
2022/09/22 12:52:37;;;;;;;;;;;;;;;17.83;47.58;99935.03;4429438;32;34147;-85
2022/09/22 12:55:21;;;;;;;;;;;;;;;17.88;47.85;99933.97;4430100;32;34322;-83
2022/09/22 12:57:50;;;;;;;;;;;;;;;18.05;47.34;99935.94;4418667;32;34706;-86
2022/09/22 13:00:25;;;;;;;;;;;;;;;17.75;48.19;99924.81;4420343;32;33440;-83
2022/09/22 13:03:03;;;;;;;;;;;;;;;17.98;48.34;99923.97;4413917;32;34534;-83
2022/09/22 13:05:33;;;;;;;;;;;;;;;18.32;47.52;99922.59;4425067;32;34380;-85
2022/09/22 13:08:02;;;;;;;;;;;;;;;18.32;48.45;99922.59;4432870;32;33909;-84
2022/09/22 13:10:51;;;;;;;;;;;;;;;18.48;47.56;99922.78;4432716;32;33389;-85
2022/09/22 13:13:21;;;;;;;;;;;;;;;18.52;47.67;99922.59;4436401;32;34092;-83
2022/09/22 13:15:55;;;;;;;;;;;;;;;18.49;47.84;99933.25;4429687;32;34219;-86
2022/09/22 13:18:31;;;;;;;;;;;;;;;18.59;48.13;99922.34;4432029;32;34444;-85
2022/09/22 13:21:00;;;;;;;;;;;;;;;18.42;48.47;99923.91;4432790;32;33404;-83